Time;durP1;ratioP1;P1;durP2;ratioP2;P2;SDS_P1;SDS_P2;PMS_P1;PMS_P2;Temp;Humidity;BMP_temperature;BMP_pressure;BME280_temperature;BME280_humidity;BME280_pressure;Samples;Min_cycle;Max_cycle;Signal;HPM_P1;HPM_P2
2022/03/27 00:00:56;;;;;;;6.93;4.07;;;18.70;67.50;;;;;;7905925;28;20256;-51
2022/03/27 00:04:42;;;;;;;5.60;3.97;;;18.70;67.50;;;;;;7905909;28;20223;-53
2022/03/27 00:08:27;;;;;;;5.65;3.95;;;18.70;67.40;;;;;;7905351;28;20173;-52
2022/03/27 00:12:13;;;;;;;7.88;3.88;;;18.70;67.50;;;;;;7905868;28;20173;-52
2022/03/27 00:15:58;;;;;;;5.28;4.25;;;18.70;67.40;;;;;;7905787;28;20199;-53
2022/03/27 00:19:44;;;;;;;6.03;3.90;;;18.60;67.30;;;;;;7905473;28;20184;-53
2022/03/27 00:23:30;;;;;;;5.88;4.03;;;18.60;67.30;;;;;;7905483;28;20208;-53
2022/03/27 00:27:15;;;;;;;6.07;3.85;;;18.70;67.50;;;;;;7905593;28;20176;-53
2022/03/27 00:31:12;;;;;;;7.88;4.18;;;18.60;67.30;;;;;;7905276;28;20184;-52
2022/03/27 00:34:57;;;;;;;6.10;3.97;;;18.60;67.40;;;;;;7905491;28;20747;-52
2022/03/27 00:38:45;;;;;;;6.00;3.80;;;18.60;67.40;;;;;;7905207;28;20169;-52
2022/03/27 00:42:30;;;;;;;3.97;3.20;;;18.60;67.50;;;;;;7904675;28;20181;-51
2022/03/27 00:46:16;;;;;;;6.45;3.95;;;18.50;67.40;;;;;;7905029;28;20204;-53
2022/03/27 00:50:02;;;;;;;4.53;3.53;;;18.60;67.40;;;;;;7904499;28;20287;-52
2022/03/27 00:53:48;;;;;;;5.53;3.50;;;18.60;67.50;;;;;;7904877;28;20280;-53
2022/03/27 00:57:35;;;;;;;4.55;3.60;;;18.50;67.40;;;;;;7904619;28;20204;-51
2022/03/27 01:01:24;;;;;;;4.20;3.53;;;18.50;67.40;;;;;;7904179;28;20233;-53
2022/03/27 01:05:13;;;;;;;7.97;3.40;;;18.60;67.50;;;;;;7904309;28;20211;-55
2022/03/27 01:13:07;;;;;;;4.50;3.42;;;18.50;67.40;;;;;;7904170;28;20200;-54
2022/03/27 01:17:01;;;;;;;5.05;3.63;;;18.50;67.50;;;;;;7904055;28;20210;-52
2022/03/27 01:20:47;;;;;;;6.35;3.38;;;18.50;67.40;;;;;;7903751;28;20173;-55
2022/03/27 01:24:32;;;;;;;4.43;3.70;;;18.50;67.40;;;;;;7903622;28;20224;-53
2022/03/27 01:28:18;;;;;;;4.45;3.10;;;18.50;67.40;;;;;;7903715;28;20177;-54
2022/03/27 01:32:05;;;;;;;4.68;3.15;;;18.50;67.40;;;;;;7903296;28;20169;-55
2022/03/27 01:35:52;;;;;;;4.30;3.65;;;18.40;67.40;;;;;;7903321;28;20216;-54
2022/03/27 01:39:38;;;;;;;7.30;3.30;;;18.40;67.40;;;;;;7903230;28;20173;-53
2022/03/27 01:43:24;;;;;;;4.07;3.30;;;18.40;67.40;;;;;;7903020;28;20211;-55
2022/03/27 01:47:09;;;;;;;5.57;3.38;;;18.40;67.40;;;;;;7903037;28;20195;-53
2022/03/27 01:51:01;;;;;;;4.05;3.28;;;18.40;67.40;;;;;;7902719;28;20196;-51
2022/03/27 01:54:47;;;;;;;4.70;3.35;;;18.40;67.40;;;;;;7902814;28;20200;-52
2022/03/27 01:58:32;;;;;;;4.57;3.28;;;18.40;67.40;;;;;;7902117;28;20271;-52
2022/03/27 02:02:23;;;;;;;4.13;3.22;;;18.40;67.40;;;;;;7902319;28;20188;-51
2022/03/27 02:06:09;;;;;;;3.58;3.00;;;18.40;67.40;;;;;;7902517;28;20187;-50
2022/03/27 02:09:54;;;;;;;8.45;3.30;;;18.40;67.40;;;;;;7902280;28;20173;-52
2022/03/27 02:13:40;;;;;;;6.85;2.95;;;18.40;67.40;;;;;;7902652;28;20236;-50
2022/03/27 02:17:25;;;;;;;5.63;3.10;;;18.30;67.30;;;;;;7902760;28;20172;-52
2022/03/27 02:21:11;;;;;;;3.22;2.83;;;18.40;67.40;;;;;;7902211;28;20564;-52
2022/03/27 02:24:56;;;;;;;3.70;3.05;;;18.40;67.40;;;;;;7901928;28;20758;-52
2022/03/27 02:28:42;;;;;;;4.25;3.33;;;18.40;67.40;;;;;;7901957;28;20179;-52
2022/03/27 02:32:27;;;;;;;5.00;3.40;;;18.30;67.30;;;;;;7901520;28;20267;-51
2022/03/27 02:36:13;;;;;;;4.68;3.42;;;18.30;67.40;;;;;;7901666;28;20171;-52
2022/03/27 02:39:59;;;;;;;3.80;3.10;;;18.30;67.30;;;;;;7901498;28;20187;-52
2022/03/27 02:43:44;;;;;;;5.20;2.60;;;18.30;67.40;;;;;;7901340;28;20207;-52
2022/03/27 02:47:29;;;;;;;3.60;3.00;;;18.30;67.40;;;;;;7901359;28;20666;-51
2022/03/27 02:51:15;;;;;;;3.63;3.00;;;18.30;67.40;;;;;;7900847;28;20224;-52
2022/03/27 02:55:01;;;;;;;3.70;3.10;;;18.30;67.40;;;;;;7901052;28;20196;-52
2022/03/27 02:58:46;;;;;;;5.15;3.10;;;18.30;67.40;;;;;;7901079;28;20646;-53
2022/03/27 03:02:33;;;;;;;3.80;2.78;;;18.30;67.30;;;;;;7900487;28;20546;-54
2022/03/27 03:06:20;;;;;;;2.80;2.55;;;18.20;67.30;;;;;;7900879;28;20172;-52
2022/03/27 03:10:06;;;;;;;3.33;2.83;;;18.20;67.30;;;;;;7899784;28;20181;-51
2022/03/27 03:13:52;;;;;;;5.25;3.25;;;18.20;67.30;;;;;;7900620;28;20207;-53
2022/03/27 03:17:38;;;;;;;3.55;3.08;;;18.20;67.30;;;;;;7900862;28;20180;-54
2022/03/27 03:21:24;;;;;;;3.20;2.60;;;18.20;67.30;;;;;;7900311;28;20176;-52
2022/03/27 03:25:10;;;;;;;3.45;2.88;;;18.20;67.30;;;;;;7900907;28;20212;-52
2022/03/27 03:28:56;;;;;;;3.63;2.88;;;18.20;67.30;;;;;;7900563;28;20260;-49
2022/03/27 03:32:43;;;;;;;4.60;2.75;;;18.20;67.30;;;;;;7900010;28;20267;-53
2022/03/27 03:36:28;;;;;;;3.40;2.85;;;18.20;67.30;;;;;;7900740;28;20191;-52
2022/03/27 03:40:14;;;;;;;4.47;3.00;;;18.20;67.30;;;;;;7900167;28;20172;-50
2022/03/27 03:44:00;;;;;;;3.33;2.88;;;18.10;67.20;;;;;;7900450;28;20291;-50
2022/03/27 03:47:45;;;;;;;3.63;2.78;;;18.20;67.30;;;;;;7900604;28;20635;-52
2022/03/27 03:51:30;;;;;;;5.53;3.38;;;18.10;67.20;;;;;;7900126;28;20196;-52
2022/03/27 03:55:16;;;;;;;2.92;2.70;;;18.10;67.20;;;;;;7900207;28;20203;-49
2022/03/27 03:59:02;;;;;;;11.40;2.75;;;18.10;67.20;;;;;;7918814;28;20192;-54
2022/03/27 04:02:47;;;;;;;5.25;2.95;;;18.10;67.20;;;;;;7931239;28;20208;-50
2022/03/27 04:06:33;;;;;;;3.83;3.00;;;18.10;67.30;;;;;;7931462;28;20180;-50
2022/03/27 04:10:19;;;;;;;4.75;2.70;;;18.10;67.20;;;;;;7931190;28;20164;-49
2022/03/27 04:14:05;;;;;;;3.60;2.42;;;18.10;68.10;;;;;;7931433;28;20678;-50
2022/03/27 04:17:51;;;;;;;3.78;3.00;;;18.10;67.20;;;;;;7931457;28;20194;-51
2022/03/27 04:21:37;;;;;;;5.60;3.17;;;18.10;67.20;;;;;;7932691;28;20168;-50
2022/03/27 04:25:22;;;;;;;6.07;3.20;;;18.10;67.20;;;;;;7937075;28;20319;-51
2022/03/27 04:29:10;;;;;;;3.60;3.22;;;18.10;67.20;;;;;;7936961;28;20308;-49
2022/03/27 04:32:56;;;;;;;5.18;3.17;;;18.10;67.10;;;;;;7936981;28;20214;-52
2022/03/27 04:36:41;;;;;;;4.00;2.85;;;18.10;67.00;;;;;;7936926;28;20657;-49
2022/03/27 04:40:27;;;;;;;3.58;2.70;;;18.10;67.00;;;;;;7936408;28;20184;-49
2022/03/27 04:44:12;;;;;;;6.82;3.08;;;18.10;66.90;;;;;;7936332;28;20216;-49
2022/03/27 04:47:58;;;;;;;3.30;2.90;;;18.10;67.00;;;;;;7936570;28;20164;-49
2022/03/27 04:51:43;;;;;;;4.85;3.47;;;18.10;66.90;;;;;;7935880;28;20184;-50
2022/03/27 04:55:29;;;;;;;3.38;3.08;;;18.10;67.00;;;;;;7936237;28;20192;-49
2022/03/27 04:59:14;;;;;;;5.43;2.88;;;18.10;66.90;;;;;;7935838;28;20182;-50
2022/03/27 05:03:00;;;;;;;4.57;3.53;;;18.10;66.80;;;;;;7935911;28;20208;-51
2022/03/27 05:06:46;;;;;;;5.28;3.28;;;18.10;66.80;;;;;;7935953;28;20210;-52
2022/03/27 05:10:31;;;;;;;3.95;3.22;;;18.10;66.90;;;;;;7935957;28;20180;-52
2022/03/27 05:14:17;;;;;;;3.90;3.15;;;18.10;66.70;;;;;;7935686;28;20200;-52
2022/03/27 05:18:02;;;;;;;4.07;3.05;;;18.10;66.70;;;;;;7935558;28;20549;-50
2022/03/27 05:21:48;;;;;;;4.68;3.03;;;18.00;66.70;;;;;;7935125;28;20194;-49
2022/03/27 05:25:40;;;;;;;5.18;3.30;;;18.10;66.70;;;;;;7935277;28;20222;-50
2022/03/27 05:29:26;;;;;;;4.55;3.50;;;18.10;66.70;;;;;;7935247;28;20176;-50
2022/03/27 05:33:12;;;;;;;4.72;3.67;;;18.00;66.70;;;;;;7934529;28;20203;-52
2022/03/27 05:36:57;;;;;;;5.22;3.33;;;18.00;66.60;;;;;;7935260;28;20172;-52
2022/03/27 05:40:43;;;;;;;5.28;3.75;;;18.00;66.70;;;;;;7932605;28;20222;-50
2022/03/27 05:44:28;;;;;;;4.72;3.38;;;18.00;66.90;;;;;;7933331;28;20218;-52
2022/03/27 05:48:14;;;;;;;8.02;3.25;;;18.10;66.80;;;;;;7924490;28;20245;-50
2022/03/27 05:51:59;;;;;;;5.45;3.40;;;18.00;66.70;;;;;;7933786;28;20274;-52
2022/03/27 05:55:47;;;;;;;5.68;3.20;;;18.00;66.70;;;;;;7934395;28;20199;-52
2022/03/27 05:59:32;;;;;;;3.55;3.10;;;18.00;66.70;;;;;;7934095;28;20176;-49
2022/03/27 06:03:18;;;;;;;3.55;2.97;;;18.00;66.70;;;;;;7934110;28;20200;-49
2022/03/27 06:07:04;;;;;;;4.50;3.47;;;18.00;66.70;;;;;;7934131;28;20172;-50
2022/03/27 06:10:49;;;;;;;6.25;3.45;;;18.00;66.70;;;;;;7933663;28;20574;-49
2022/03/27 06:14:35;;;;;;;4.05;3.22;;;18.00;66.70;;;;;;7933505;28;20200;-49
2022/03/27 06:18:21;;;;;;;11.05;3.10;;;17.90;66.90;;;;;;7933070;28;20172;-52
2022/03/27 06:22:06;;;;;;;6.38;2.90;;;18.00;67.10;;;;;;7920834;28;20187;-48
2022/03/27 06:25:52;;;;;;;4.25;3.08;;;18.00;67.20;;;;;;7901134;28;20282;-50
2022/03/27 06:29:37;;;;;;;9.90;3.13;;;18.00;67.20;;;;;;7901306;28;20227;-50
2022/03/27 06:33:22;;;;;;;5.68;2.97;;;18.00;67.00;;;;;;7901652;28;20282;-49
2022/03/27 06:37:08;;;;;;;6.82;3.03;;;18.00;67.20;;;;;;7901532;28;20194;-52
2022/03/27 06:40:53;;;;;;;7.90;3.10;;;18.00;67.20;;;;;;7900821;28;20241;-49
2022/03/27 06:44:39;;;;;;;5.65;3.40;;;18.00;67.20;;;;;;7900642;28;20216;-52
2022/03/27 06:48:24;;;;;;;5.50;2.78;;;17.90;67.20;;;;;;7902925;28;20741;-50
2022/03/27 06:52:10;;;;;;;4.80;3.25;;;18.00;67.40;;;;;;7901112;28;20200;-52
2022/03/27 06:55:56;;;;;;;3.25;2.75;;;17.90;67.40;;;;;;7900904;28;20212;-52
2022/03/27 07:03:45;;;;;;;16.30;3.35;;;17.90;67.40;;;;;;7932795;28;20207;-53
2022/03/27 07:07:31;;;;;;;15.20;3.28;;;17.90;67.60;;;;;;7932106;28;20213;-52
2022/03/27 07:11:17;;;;;;;18.58;3.97;;;17.90;67.50;;;;;;7926882;28;20173;-53
2022/03/27 07:15:02;;;;;;;45.90;4.75;;;18.00;67.50;;;;;;7899623;28;20292;-52
2022/03/27 07:18:49;;;;;;;70.18;6.03;;;17.90;67.80;;;;;;7900778;28;20193;-53
2022/03/27 07:22:34;;;;;;;53.42;5.85;;;17.90;68.00;;;;;;7898974;28;20699;-52
2022/03/27 07:26:20;;;;;;;52.25;5.70;;;18.00;68.10;;;;;;7900493;28;20637;-51
2022/03/27 07:30:06;;;;;;;37.58;4.50;;;18.00;68.10;;;;;;7900277;28;20255;-54
2022/03/27 07:33:54;;;;;;;38.33;4.18;;;18.00;68.10;;;;;;7900535;28;20197;-54
2022/03/27 07:37:41;;;;;;;18.33;4.07;;;18.00;68.00;;;;;;7900523;28;20180;-53
2022/03/27 07:41:27;;;;;;;25.55;3.55;;;18.00;67.90;;;;;;7899925;28;20672;-53
2022/03/27 07:45:13;;;;;;;26.17;4.10;;;18.00;68.00;;;;;;7900129;28;20763;-55
2022/03/27 07:48:59;;;;;;;17.25;3.17;;;18.00;68.10;;;;;;7900214;28;20183;-50
2022/03/27 07:52:45;;;;;;;26.77;3.83;;;18.00;68.10;;;;;;7907906;28;20191;-53
2022/03/27 07:56:30;;;;;;;12.25;3.28;;;17.90;68.00;;;;;;7928290;28;20200;-53
2022/03/27 08:00:17;;;;;;;18.83;4.50;;;18.00;67.90;;;;;;7926217;28;20677;-55
2022/03/27 08:04:02;;;;;;;29.00;4.20;;;18.00;68.10;;;;;;7936782;28;20287;-51
2022/03/27 08:07:48;;;;;;;12.55;3.80;;;18.00;68.10;;;;;;7937116;28;20638;-49
2022/03/27 08:11:35;;;;;;;19.83;3.67;;;17.90;68.10;;;;;;7936653;28;20175;-51
2022/03/27 08:15:21;;;;;;;23.42;4.30;;;17.90;68.00;;;;;;7928108;28;20284;-50
2022/03/27 08:19:07;;;;;;;22.65;3.90;;;18.00;68.10;;;;;;7929190;28;20180;-51
2022/03/27 08:22:53;;;;;;;24.95;4.72;;;18.00;68.20;;;;;;7920005;28;20925;-49
2022/03/27 08:26:59;;;;;;;26.88;4.45;;;18.00;68.40;;;;;;7936172;28;20168;-49
2022/03/27 08:30:45;;;;;;;17.55;3.63;;;18.00;68.40;;;;;;7905495;28;20187;-49
2022/03/27 08:34:32;;;;;;;14.05;3.47;;;18.00;68.40;;;;;;7905366;28;20204;-50
2022/03/27 08:38:18;;;;;;;16.48;3.50;;;18.00;68.40;;;;;;7905391;28;20175;-51
2022/03/27 08:42:03;;;;;;;18.33;3.63;;;18.00;68.50;;;;;;7905002;28;20176;-49
2022/03/27 08:45:49;;;;;;;6.47;3.38;;;18.00;68.40;;;;;;7903600;28;20584;-49
2022/03/27 08:49:48;;;;;;;14.32;3.92;;;18.00;68.30;;;;;;7904719;28;20191;-50
2022/03/27 08:53:51;;;;;;;17.45;3.28;;;18.00;68.30;;;;;;7904781;28;20204;-49
2022/03/27 08:57:53;;;;;;;10.65;3.42;;;18.00;68.30;;;;;;7904820;28;20184;-50
2022/03/27 09:01:39;;;;;;;17.52;4.20;;;18.00;68.10;;;;;;7904537;28;20181;-52
2022/03/27 09:05:25;;;;;;;9.93;3.40;;;18.00;68.10;;;;;;7904437;28;20215;-50
2022/03/27 09:09:10;;;;;;;13.85;3.25;;;18.10;68.40;;;;;;7902617;28;20263;-53
2022/03/27 09:12:56;;;;;;;19.63;3.67;;;18.10;68.30;;;;;;7931720;28;20253;-50
2022/03/27 09:17:07;;;;;;;9.10;3.55;;;18.10;68.30;;;;;;7935750;28;20531;-51
2022/03/27 09:20:53;;;;;;;20.85;3.72;;;18.10;68.40;;;;;;7935433;28;20176;-49
2022/03/27 09:24:38;;;;;;;12.52;3.60;;;18.10;68.30;;;;;;7935991;28;20203;-52
2022/03/27 09:28:26;;;;;;;16.55;3.20;;;18.10;68.30;;;;;;7935478;28;20172;-51
2022/03/27 09:32:25;;;;;;;11.68;3.40;;;18.00;68.20;;;;;;7935088;28;20160;-54
2022/03/27 09:36:23;;;;;;;12.25;2.90;;;18.10;68.30;;;;;;7933248;28;20176;-53
2022/03/27 09:40:12;;;;;;;17.65;3.55;;;18.10;68.30;;;;;;7934611;28;20184;-52
2022/03/27 09:44:00;;;;;;;11.90;3.03;;;18.10;68.10;;;;;;7905291;27;20240;-53
2022/03/27 09:47:48;;;;;;;11.20;3.20;;;18.10;68.10;;;;;;7903363;28;20643;-51
2022/03/27 09:51:49;;;;;;;11.95;3.20;;;18.10;68.10;;;;;;7902845;28;20193;-52
2022/03/27 09:55:35;;;;;;;9.40;3.05;;;18.10;68.30;;;;;;7902796;28;20262;-52
2022/03/27 09:59:34;;;;;;;8.23;2.70;;;18.20;68.20;;;;;;7902522;28;20279;-55
2022/03/27 10:03:19;;;;;;;10.23;3.17;;;18.10;68.10;;;;;;7902669;28;20210;-53
2022/03/27 10:07:17;;;;;;;9.48;2.80;;;18.20;68.00;;;;;;7903049;28;20173;-52
2022/03/27 10:11:03;;;;;;;10.75;3.42;;;18.20;68.10;;;;;;7907884;28;20714;-51
2022/03/27 10:14:49;;;;;;;10.68;3.60;;;18.20;67.90;;;;;;7904689;28;20262;-50
2022/03/27 10:18:36;;;;;;;10.25;3.28;;;18.20;67.90;;;;;;7902438;28;20702;-50
2022/03/27 10:22:24;;;;;;;11.23;3.25;;;18.20;68.10;;;;;;7902075;28;20638;-52
2022/03/27 10:26:10;;;;;;;7.00;2.97;;;18.20;68.10;;;;;;7902073;28;20636;-53
2022/03/27 10:29:58;;;;;;;12.23;3.30;;;18.20;68.10;;;;;;7911448;28;20209;-53
2022/03/27 10:33:45;;;;;;;10.07;3.15;;;18.20;68.10;;;;;;7920799;28;20196;-52
2022/03/27 10:37:42;;;;;;;10.15;2.92;;;18.20;67.90;;;;;;7930211;28;20192;-52
2022/03/27 10:42:08;;;;;;;6.20;2.88;;;18.20;68.00;;;;;;7902121;28;20561;-51
2022/03/27 10:46:15;;;;;;;7.88;3.13;;;18.20;68.10;;;;;;7901849;28;20222;-52
2022/03/27 10:50:00;;;;;;;11.90;3.17;;;18.20;67.90;;;;;;7901450;28;20223;-52
2022/03/27 10:54:09;;;;;;;9.45;3.15;;;18.20;67.90;;;;;;7901491;28;20200;-50
2022/03/27 10:57:54;;;;;;;9.68;2.60;;;18.20;68.10;;;;;;7901667;28;20176;-52
2022/03/27 11:01:43;;;;;;;11.25;3.35;;;18.30;68.00;;;;;;7901007;28;20188;-51
2022/03/27 11:05:31;;;;;;;10.40;3.53;;;18.30;68.00;;;;;;7900995;28;20212;-51
2022/03/27 11:09:38;;;;;;;11.63;3.13;;;18.20;67.70;;;;;;7900984;28;20259;-51
2022/03/27 11:13:27;;;;;;;5.95;2.88;;;18.20;67.70;;;;;;7900908;28;20225;-50
2022/03/27 11:17:13;;;;;;;6.75;3.03;;;18.20;67.70;;;;;;7900998;28;20180;-50
2022/03/27 11:20:59;;;;;;;9.18;3.10;;;18.20;67.80;;;;;;7900786;28;20173;-52
2022/03/27 11:24:44;;;;;;;9.98;3.58;;;18.30;67.70;;;;;;7900521;28;20212;-51
2022/03/27 11:28:44;;;;;;;3.65;2.50;;;18.30;67.70;;;;;;7900789;28;20178;-50
2022/03/27 11:32:31;;;;;;;5.72;2.40;;;18.30;68.00;;;;;;7899489;28;20210;-54
2022/03/27 11:36:17;;;;;;;7.10;2.70;;;18.30;67.90;;;;;;7900599;28;20649;-53
2022/03/27 11:40:03;;;;;;;6.85;3.22;;;18.30;67.60;;;;;;7900402;28;20748;-52
2022/03/27 11:43:50;;;;;;;8.82;2.88;;;18.30;67.70;;;;;;7900453;28;20196;-52
2022/03/27 11:47:37;;;;;;;10.18;3.03;;;18.30;67.50;;;;;;7900532;28;20582;-51
2022/03/27 11:51:26;;;;;;;5.93;2.67;;;18.30;67.40;;;;;;7899874;28;20625;-53
2022/03/27 11:55:13;;;;;;;6.35;2.90;;;18.30;67.40;;;;;;7900141;28;20824;-55
2022/03/27 11:59:09;;;;;;;7.18;2.70;;;18.30;67.30;;;;;;7900104;28;20185;-52
2022/03/27 12:02:54;;;;;;;4.63;2.72;;;18.30;67.20;;;;;;7900174;28;20192;-54
2022/03/27 12:06:39;;;;;;;5.70;2.60;;;18.30;67.40;;;;;;7900428;28;20184;-52
2022/03/27 12:10:26;;;;;;;3.30;2.40;;;18.30;67.40;;;;;;7900291;28;20177;-50
2022/03/27 12:14:11;;;;;;;3.80;2.55;;;18.30;67.40;;;;;;7900049;28;20284;-51
2022/03/27 12:17:57;;;;;;;4.13;2.65;;;18.30;67.40;;;;;;7900225;28;20184;-52
2022/03/27 12:21:46;;;;;;;5.30;3.08;;;18.30;67.20;;;;;;7899909;28;20177;-53
2022/03/27 12:25:32;;;;;;;4.97;2.50;;;18.30;67.10;;;;;;7900232;28;20231;-50
2022/03/27 12:33:24;;;;;;;8.02;2.33;;;18.30;67.00;;;;;;7900133;28;20718;-52
2022/03/27 12:37:19;;;;;;;5.50;2.70;;;18.40;67.10;;;;;;7924016;28;20192;-51
2022/03/27 12:41:04;;;;;;;5.90;2.75;;;18.40;67.20;;;;;;7920033;28;20271;-50
2022/03/27 12:44:50;;;;;;;7.07;2.65;;;18.40;67.20;;;;;;7910884;28;20227;-51
2022/03/27 12:48:36;;;;;;;9.90;2.55;;;18.40;67.00;;;;;;7905312;28;20232;-52
2022/03/27 12:52:21;;;;;;;5.05;2.80;;;18.40;67.00;;;;;;7904678;28;20192;-50
2022/03/27 12:56:11;;;;;;;8.57;2.30;;;18.40;66.90;;;;;;7904661;28;20204;-52
2022/03/27 12:59:56;;;;;;;9.77;2.25;;;18.50;66.80;;;;;;7904657;28;20181;-52
2022/03/27 13:04:04;;;;;;;5.95;2.35;;;18.50;67.20;;;;;;7904202;28;20269;-52
2022/03/27 13:07:54;;;;;;;4.68;3.00;;;18.50;67.10;;;;;;7904706;28;20172;-51
2022/03/27 13:11:44;;;;;;;4.90;2.63;;;18.50;67.10;;;;;;7904294;28;20268;-51
2022/03/27 13:15:52;;;;;;;7.05;2.28;;;18.50;67.10;;;;;;7904302;28;20209;-51
2022/03/27 13:19:43;;;;;;;7.53;2.58;;;18.50;67.10;;;;;;7903828;28;20587;-53
2022/03/27 13:23:28;;;;;;;4.40;2.50;;;18.60;67.20;;;;;;7903929;28;20239;-52
2022/03/27 13:27:15;;;;;;;7.47;2.70;;;18.60;67.20;;;;;;7903962;28;20196;-52
2022/03/27 13:31:00;;;;;;;8.55;2.33;;;18.60;67.00;;;;;;7903589;28;20173;-52
2022/03/27 13:34:46;;;;;;;5.10;2.55;;;18.60;67.10;;;;;;7903550;28;20206;-53
2022/03/27 13:38:31;;;;;;;6.18;2.38;;;18.60;67.00;;;;;;7903831;28;20172;-50
2022/03/27 13:46:21;;;;;;;5.13;2.22;;;18.60;67.10;;;;;;7902434;28;20216;-52
2022/03/27 13:50:07;;;;;;;4.00;2.45;;;18.60;67.20;;;;;;7902189;28;20200;-51
2022/03/27 13:53:53;;;;;;;6.45;2.20;;;18.70;67.50;;;;;;7901300;28;20235;-52
2022/03/27 13:57:38;;;;;;;11.75;2.28;;;18.60;67.10;;;;;;7916284;28;20597;-52
2022/03/27 14:01:24;;;;;;;12.25;2.65;;;18.70;67.20;;;;;;7925751;28;20219;-50
2022/03/27 14:05:10;;;;;;;7.43;2.33;;;18.70;67.50;;;;;;7931641;28;20276;-53
2022/03/27 14:08:56;;;;;;;9.38;2.55;;;18.60;67.20;;;;;;7902895;28;20177;-54
2022/03/27 14:12:41;;;;;;;5.45;2.22;;;18.70;67.20;;;;;;7902506;28;20638;-52
2022/03/27 14:16:28;;;;;;;4.63;2.17;;;18.70;67.20;;;;;;7902444;28;20522;-52
2022/03/27 14:20:16;;;;;;;3.88;2.00;;;18.70;67.20;;;;;;7902074;28;20173;-50
2022/03/27 14:24:02;;;;;;;5.38;2.63;;;18.70;67.20;;;;;;7902068;28;20196;-51
2022/03/27 14:27:47;;;;;;;4.80;2.03;;;18.70;67.20;;;;;;7902110;28;20176;-50
2022/03/27 14:31:33;;;;;;;6.57;2.33;;;18.70;67.00;;;;;;7901954;28;20172;-51
2022/03/27 14:35:18;;;;;;;3.38;1.73;;;18.70;67.20;;;;;;7901686;28;20268;-52
2022/03/27 14:39:04;;;;;;;4.60;2.22;;;18.70;68.00;;;;;;7901693;28;20188;-52
2022/03/27 14:42:50;;;;;;;5.93;2.08;;;18.70;67.20;;;;;;7901656;28;20234;-52
2022/03/27 14:46:37;;;;;;;9.68;2.30;;;18.70;67.00;;;;;;7901585;28;20201;-52
2022/03/27 14:50:22;;;;;;;5.57;2.10;;;18.70;68.00;;;;;;7901372;28;20192;-53
2022/03/27 14:58:30;;;;;;;3.83;2.35;;;18.70;67.00;;;;;;7899588;28;20199;-51
2022/03/27 15:02:17;;;;;;;3.90;1.80;;;18.70;67.00;;;;;;7900504;28;20188;-50
2022/03/27 15:06:02;;;;;;;4.20;2.55;;;18.70;66.90;;;;;;7901013;28;20216;-51
2022/03/27 15:09:48;;;;;;;3.78;2.17;;;18.70;66.90;;;;;;7900719;28;20188;-52
2022/03/27 15:13:33;;;;;;;3.15;1.90;;;18.70;66.70;;;;;;7906910;28;20203;-52
2022/03/27 15:17:19;;;;;;;2.50;2.00;;;18.70;66.80;;;;;;7932521;28;20665;-52
2022/03/27 15:21:07;;;;;;;3.53;2.10;;;18.70;66.90;;;;;;7932339;28;20637;-50
2022/03/27 15:24:53;;;;;;;4.10;2.22;;;18.70;67.00;;;;;;7932267;28;20262;-51
2022/03/27 15:28:39;;;;;;;5.85;2.17;;;18.70;67.00;;;;;;7932215;28;20221;-49
2022/03/27 15:32:28;;;;;;;3.90;1.85;;;18.70;66.90;;;;;;7931719;28;20252;-52
2022/03/27 15:36:14;;;;;;;3.35;2.03;;;18.70;66.90;;;;;;7931977;28;20188;-53
2022/03/27 15:39:59;;;;;;;2.00;1.75;;;18.70;67.00;;;;;;7931787;28;20712;-53
2022/03/27 15:43:46;;;;;;;4.10;2.00;;;18.70;67.00;;;;;;7931742;28;20583;-53
2022/03/27 15:47:32;;;;;;;7.22;2.03;;;18.70;67.10;;;;;;7931690;28;20218;-54
2022/03/27 15:51:17;;;;;;;3.28;1.80;;;18.70;67.00;;;;;;7907342;28;20239;-52
2022/03/27 15:55:04;;;;;;;2.97;1.80;;;18.70;67.10;;;;;;7903102;28;20291;-50
2022/03/27 15:58:49;;;;;;;2.47;1.92;;;18.70;67.10;;;;;;7932285;28;20211;-53
2022/03/27 16:02:39;;;;;;;7.63;2.08;;;18.70;67.20;;;;;;7913950;28;20669;-54
2022/03/27 16:06:24;;;;;;;7.55;2.30;;;18.70;67.30;;;;;;7899877;28;20346;-53
2022/03/27 16:10:10;;;;;;;5.40;1.90;;;18.70;67.10;;;;;;7899671;28;20188;-55
2022/03/27 16:13:57;;;;;;;3.88;2.17;;;18.70;67.20;;;;;;7900061;28;20197;-54
2022/03/27 16:17:42;;;;;;;5.10;1.98;;;18.70;67.60;;;;;;7901888;28;20242;-53
2022/03/27 16:21:28;;;;;;;15.77;3.53;;;18.60;67.70;;;;;;7905603;28;20275;-52
2022/03/27 16:25:14;;;;;;;24.85;4.28;;;18.70;68.10;;;;;;7905593;28;20697;-50
2022/03/27 16:28:59;;;;;;;8.50;3.63;;;18.70;67.80;;;;;;7905590;28;20522;-53
2022/03/27 16:32:45;;;;;;;8.90;3.20;;;18.70;67.90;;;;;;7905124;28;20204;-53
2022/03/27 16:36:31;;;;;;;18.50;4.30;;;18.60;67.80;;;;;;7905365;28;20682;-52
2022/03/27 16:40:17;;;;;;;26.40;9.85;;;18.60;67.80;;;;;;7917216;28;20219;-52
2022/03/27 16:44:02;;;;;;;14.32;6.15;;;18.60;68.10;;;;;;7936614;28;20208;-52
2022/03/27 16:47:48;;;;;;;28.98;10.18;;;18.60;68.10;;;;;;7910681;28;20670;-54
2022/03/27 16:51:33;;;;;;;21.75;7.10;;;18.60;68.10;;;;;;7904903;28;20275;-52
2022/03/27 16:55:19;;;;;;;22.05;7.20;;;18.60;67.90;;;;;;7905024;28;20530;-52
2022/03/27 16:59:06;;;;;;;14.75;5.82;;;18.60;67.80;;;;;;7904653;28;20191;-53
2022/03/27 17:02:51;;;;;;;33.25;9.40;;;18.60;68.00;;;;;;7903817;28;20230;-51
2022/03/27 17:06:37;;;;;;;24.60;8.88;;;18.60;68.30;;;;;;7904117;28;20337;-52
2022/03/27 17:10:23;;;;;;;26.90;8.23;;;18.60;68.40;;;;;;7903880;28;20569;-53
2022/03/27 17:14:10;;;;;;;19.08;7.32;;;18.50;68.50;;;;;;7903518;28;20203;-52
2022/03/27 17:17:56;;;;;;;25.80;7.20;;;18.50;68.40;;;;;;7904063;28;20539;-52
2022/03/27 17:21:41;;;;;;;20.63;8.98;;;18.50;68.40;;;;;;7903751;28;20191;-50
2022/03/27 17:25:27;;;;;;;21.48;7.35;;;18.60;68.70;;;;;;7903793;28;20386;-55
2022/03/27 17:29:13;;;;;;;23.50;7.75;;;18.50;68.50;;;;;;7902172;28;20208;-53
2022/03/27 17:32:58;;;;;;;16.00;7.07;;;18.50;68.50;;;;;;7902880;28;20279;-52
2022/03/27 17:36:44;;;;;;;20.38;8.20;;;18.40;68.50;;;;;;7929256;28;20267;-53
2022/03/27 17:40:30;;;;;;;24.67;7.40;;;18.50;69.50;;;;;;7934620;28;20207;-53
2022/03/27 17:44:15;;;;;;;20.17;6.65;;;18.50;68.60;;;;;;7934556;28;20207;-54
2022/03/27 17:48:00;;;;;;;14.50;6.88;;;18.40;68.50;;;;;;7934739;28;20214;-55
2022/03/27 17:51:47;;;;;;;16.00;6.82;;;18.50;68.60;;;;;;7934353;28;20225;-53
2022/03/27 17:55:32;;;;;;;14.27;7.25;;;18.40;68.50;;;;;;7933811;28;20207;-54
2022/03/27 17:59:19;;;;;;;19.48;7.32;;;18.40;68.50;;;;;;7934078;28;20187;-52
2022/03/27 18:03:05;;;;;;;19.25;6.53;;;18.50;68.70;;;;;;7928366;28;20223;-53
2022/03/27 18:06:50;;;;;;;23.77;7.18;;;18.50;68.50;;;;;;7925231;28;20184;-53
2022/03/27 18:10:37;;;;;;;18.48;6.65;;;18.50;68.70;;;;;;7902353;28;20634;-55
2022/03/27 18:14:24;;;;;;;21.73;6.82;;;18.50;68.60;;;;;;7901562;28;20204;-52
2022/03/27 18:18:09;;;;;;;20.35;6.50;;;18.50;68.60;;;;;;7902740;28;20643;-50
2022/03/27 18:21:55;;;;;;;23.92;6.68;;;18.60;68.50;;;;;;7902631;28;20548;-52
2022/03/27 18:25:40;;;;;;;18.38;6.60;;;18.60;68.60;;;;;;7914117;28;20257;-52
2022/03/27 18:29:26;;;;;;;38.78;7.78;;;18.60;68.40;;;;;;7908470;28;20188;-52
2022/03/27 18:33:12;;;;;;;31.48;7.28;;;18.60;68.40;;;;;;7910811;28;20198;-51
2022/03/27 18:36:58;;;;;;;50.17;8.32;;;18.60;68.50;;;;;;7919079;28;20191;-52
2022/03/27 18:40:43;;;;;;;34.15;6.55;;;18.70;68.50;;;;;;7902914;28;20677;-50
2022/03/27 18:44:29;;;;;;;41.10;6.70;;;18.70;68.50;;;;;;7901272;28;20205;-52
2022/03/27 18:48:17;;;;;;;18.25;6.13;;;18.70;68.70;;;;;;7901415;28;20176;-53
2022/03/27 18:52:03;;;;;;;28.13;6.85;;;18.80;68.40;;;;;;7901000;28;20224;-52
2022/03/27 18:55:49;;;;;;;30.35;5.82;;;18.80;68.20;;;;;;7900307;28;20216;-50
2022/03/27 18:59:35;;;;;;;20.10;6.70;;;18.80;68.00;;;;;;7900873;28;20198;-52
2022/03/27 19:03:20;;;;;;;17.77;5.75;;;18.80;67.90;;;;;;7900850;28;20396;-52
2022/03/27 19:07:09;;;;;;;17.10;5.97;;;18.80;67.80;;;;;;7919658;28;20224;-52
2022/03/27 19:10:54;;;;;;;23.20;5.60;;;18.90;67.70;;;;;;7932144;28;20176;-52
2022/03/27 19:14:42;;;;;;;22.27;5.97;;;18.90;67.70;;;;;;7931539;28;20253;-52
2022/03/27 19:18:45;;;;;;;28.08;6.30;;;19.10;67.90;;;;;;7910409;28;20547;-51
2022/03/27 19:22:36;;;;;;;13.93;5.22;;;19.10;68.00;;;;;;7928759;28;20640;-52
2022/03/27 19:26:23;;;;;;;17.15;5.90;;;19.20;67.70;;;;;;7924999;28;20208;-53
2022/03/27 19:30:12;;;;;;;15.05;6.20;;;19.30;67.60;;;;;;7918710;28;20173;-52
2022/03/27 19:33:57;;;;;;;19.33;5.97;;;19.40;67.40;;;;;;7930433;28;20207;-52
2022/03/27 19:37:43;;;;;;;12.82;5.93;;;19.50;67.40;;;;;;7931284;28;20183;-53
2022/03/27 19:41:28;;;;;;;20.58;6.38;;;19.50;67.20;;;;;;7930981;28;20507;-54
2022/03/27 19:45:14;;;;;;;19.08;5.93;;;19.60;67.10;;;;;;7908629;28;20228;-54
2022/03/27 19:49:01;;;;;;;11.38;5.63;;;19.60;68.00;;;;;;7908174;28;20176;-52
2022/03/27 19:52:46;;;;;;;17.20;5.97;;;19.60;67.00;;;;;;7930749;28;20199;-52
2022/03/27 19:56:32;;;;;;;14.02;5.10;;;19.60;67.10;;;;;;7919701;28;20219;-52